Aérodrome :
LOGIN :

S'inscrire | Disclaimer

   EN    FR    IT 

 










Légende :    VFR   VFR Marginal   IFR   IFR Intensif   IFR Très Intensif
Visi : 
Plafond : 
>= 8 km
>= 3000ft
5 à 8 km
1000 à 3000 ft
1500m à 5 km
500 à 1000 ft
800 à 1500m
200 à 500 ft
< 800m
< 200 ft
Symboles :   Orages  Brouillard  Fortes neiges  Fortes précipitations  Vent > 20 kt
SIGMETs :   Divers  Orages  Givrage  Turbulence  Onde Orograph.  Cendres Volcan.






- Altitude de l'aérodrome : 364 ft
- Code IATA : FRA


EDDF - Frankfurt Int.

DERNIER METAR :
  • 021850Z 20009KT 8000 2500S +TSRA FEW011 BKN030CB 16/14 Q1015 BECMG -SHRA

METARs EXPIRÉS :
  • 021820Z 16004KT 9999 VCTS FEW011 SCT030CB 18/16 Q1014 TEMPO 24015G25KT TSRA
  • 021750Z 12004KT 090V150 9999 -SHRA FEW016 SCT030CB 18/15 Q1014 RETSRA NOSIG
  • 021720Z 15004KT 9999 -TSRA FEW020 SCT030CB 19/15 Q1014 TEMPO 32010KT TSRA
  • 021650Z 15004KT 110V170 9999 VCSH FEW020 FEW030CB 19/15 Q1014 NOSIG
  • 021620Z 12004KT 060V150 9999 -SHRA FEW020 FEW030CB 19/15 Q1014 RESHRA NOSIG

TAF AMD TAF EDDF
Valide du 02 à 18h jusqu'au 04 à 00h UTC


021815Z 0218/0324 19004KT 9999 SCT030
PROB40
TEMPO 0218/0220 TSRA BKN030CB
TEMPO 0305/0309 4000 SHRA BKN014CB
BECMG 0308/0310 20009KT
PROB30
TEMPO 0309/0318 24015G25KT 3000 TSRA BKN020CB
BECMG 0318/0320 19004KT



MET'MAP, la Météo Aéronautique d'un coup d'oeil ! - Copyright ORBIFLY Décembre 2007 - Disclaimer

ORBIFLY MET'MAP TEAM :

Programmation & Développement : Alexandra Zaïnal
Sur une idée originale de : Baudouin d'Aumeries
Assistance à la programmation : Marc-Olivier Méhu
Soutien technique & logistique : Manuel Goepfert

Contact : metmap@orbifly.com




SOURCES & CREDITS :

   NOAA